Time;durP1;ratioP1;P1;durP2;ratioP2;P2;SDS_P1;SDS_P2;PMS_P1;PMS_P2;Temp;Humidity;BMP_temperature;BMP_pressure;BME280_temperature;BME280_humidity;BME280_pressure;Samples;Min_cycle;Max_cycle;Signal;HPM_P1;HPM_P2
2022/10/14 00:01:42;;;;;;;47.60;29.40;;;;;;;6.64;65.94;99376.97;103172;1296;107060;-77
2022/10/14 00:04:16;;;;;;;48.90;30.30;;;;;;;6.64;65.86;99375.36;103113;1300;97211;-76
2022/10/14 00:06:44;;;;;;;49.90;29.30;;;;;;;6.64;65.84;99372.38;103123;1304;97892;-76
2022/10/14 00:09:15;;;;;;;48.30;29.10;;;;;;;6.62;65.87;99370.16;103184;1296;111169;-76
2022/10/14 00:11:43;;;;;;;45.50;29.30;;;;;;;6.58;65.71;99367.76;103112;1296;97772;-75
2022/10/14 00:14:17;;;;;;;47.70;27.80;;;;;;;6.52;65.84;99365.21;103048;1297;107163;-76
2022/10/14 00:16:51;;;;;;;48.70;29.60;;;;;;;6.50;66.02;99367.31;103096;1299;97927;-75
2022/10/14 00:19:18;;;;;;;46.40;28.20;;;;;;;6.48;66.03;99361.56;103055;1296;95245;-75
2022/10/14 00:21:46;;;;;;;48.20;29.40;;;;;;;6.48;66.12;99359.98;103062;1304;111143;-77
2022/10/14 00:24:18;;;;;;;44.00;26.90;;;;;;;6.48;66.26;99359.83;103057;1304;97864;-78
2022/10/14 00:26:49;;;;;;;45.50;26.70;;;;;;;6.48;66.09;99360.32;103097;1296;107235;-76
2022/10/14 00:29:21;;;;;;;43.00;27.20;;;;;;;6.48;66.08;99360.89;103135;1298;98000;-77
2022/10/14 00:31:50;;;;;;;47.80;28.80;;;;;;;6.46;66.18;99358.67;103122;1304;98093;-77
2022/10/14 00:34:21;;;;;;;42.60;25.80;;;;;;;6.45;66.34;99358.55;103112;1297;111268;-75
2022/10/14 00:36:49;;;;;;;44.20;25.50;;;;;;;6.45;66.36;99357.66;103008;1305;97937;-74
2022/10/14 00:39:17;;;;;;;44.90;25.50;;;;;;;6.46;66.25;99357.29;103147;1297;107342;-75
2022/10/14 00:41:44;;;;;;;39.20;23.30;;;;;;;6.45;66.28;99355.71;103101;1306;97817;-76
2022/10/14 00:44:12;;;;;;;42.40;25.10;;;;;;;6.46;66.54;99350.94;103108;1296;97946;-77
2022/10/14 00:46:47;;;;;;;42.00;24.40;;;;;;;6.46;66.47;99352.33;103058;1296;110877;-77
2022/10/14 00:49:23;;;;;;;45.10;23.90;;;;;;;6.46;66.39;99349.69;103105;1303;97732;-77
2022/10/14 00:52:21;;;;;;;38.70;23.60;;;;;;;6.45;66.31;99349.04;103126;1298;107476;-76
2022/10/14 00:54:55;;;;;;;38.30;23.20;;;;;;;6.43;66.47;99347.72;103058;1299;98856;-76
2022/10/14 00:57:28;;;;;;;38.10;21.90;;;;;;;6.43;66.46;99347.37;103139;1304;97987;-75
2022/10/14 01:00:11;;;;;;;41.30;22.60;;;;;;;6.44;66.54;99343.83;103052;1289;110916;-75
2022/10/14 01:02:42;;;;;;;38.70;22.20;;;;;;;6.43;66.72;99341.72;103080;1304;97850;-76
2022/10/14 01:05:16;;;;;;;41.20;24.10;;;;;;;6.42;66.54;99342.83;103082;1297;107313;-76
2022/10/14 01:08:17;;;;;;;39.20;22.60;;;;;;;6.40;66.70;99340.64;103104;1291;97993;-76
2022/10/14 01:11:09;;;;;;;37.30;21.90;;;;;;;6.36;66.60;99343.30;103036;1304;97930;-75
2022/10/14 01:13:52;;;;;;;39.60;22.50;;;;;;;6.34;66.85;99343.05;103136;1305;111031;-76
2022/10/14 01:16:38;;;;;;;39.90;23.80;;;;;;;6.33;66.79;99341.91;103117;1296;98048;-76
2022/10/14 01:19:24;;;;;;;42.10;25.50;;;;;;;6.30;66.76;99339.80;103168;1294;107459;-75
2022/10/14 01:22:11;;;;;;;39.20;22.60;;;;;;;6.26;66.73;99337.14;102994;1308;97876;-77
2022/10/14 01:24:51;;;;;;;38.70;22.60;;;;;;;6.25;67.02;99331.74;103006;1303;95416;-77
2022/10/14 01:27:40;;;;;;;38.10;23.30;;;;;;;6.25;66.93;99334.73;103194;1296;110812;-77
2022/10/14 01:30:25;;;;;;;38.60;23.20;;;;;;;6.24;67.00;99331.44;103095;1302;98044;-77
2022/10/14 01:33:02;;;;;;;38.50;23.00;;;;;;;6.24;67.14;99326.32;103110;1298;107624;-77
2022/10/14 01:35:37;;;;;;;41.40;24.10;;;;;;;6.22;66.98;99327.29;103146;1304;97971;-76
2022/10/14 01:38:24;;;;;;;45.10;24.10;;;;;;;6.19;67.02;99329.90;103089;1305;95683;-77
2022/10/14 01:41:15;;;;;;;41.20;24.30;;;;;;;6.18;67.16;99331.19;103085;1297;111040;-77
2022/10/14 01:43:49;;;;;;;38.70;22.80;;;;;;;6.16;67.22;99333.08;103003;1297;97918;-76
2022/10/14 01:46:23;;;;;;;40.10;23.00;;;;;;;6.13;67.08;99332.87;103088;1305;106566;-75
2022/10/14 01:49:05;;;;;;;40.60;24.00;;;;;;;6.09;67.07;99331.60;103109;1296;97852;-75
2022/10/14 01:51:42;;;;;;;39.70;24.00;;;;;;;6.07;67.07;99327.48;103199;1298;97898;-74
2022/10/14 01:54:16;;;;;;;38.20;22.80;;;;;;;6.05;66.99;99333.09;103159;1304;111183;-75
2022/10/14 01:56:58;;;;;;;38.10;22.30;;;;;;;6.02;67.19;99336.05;103174;1299;95210;-75
2022/10/14 01:59:32;;;;;;;41.00;22.70;;;;;;;5.99;67.03;99336.17;103118;1303;107412;-75
2022/10/14 02:02:04;;;;;;;38.90;23.30;;;;;;;5.98;67.59;99331.79;103073;1304;97886;-75
2022/10/14 02:04:32;;;;;;;37.70;22.00;;;;;;;6.00;67.48;99335.23;103166;1291;95242;-76
2022/10/14 02:07:21;;;;;;;;;;;;;;;6.02;67.19;99334.79;103163;1304;111134;-76
2022/10/14 02:10:27;;;;;;;39.20;22.30;;;;;;;5.99;67.12;99326.45;103083;1304;96962;-76
2022/10/14 02:13:04;;;;;;;42.80;22.10;;;;;;;5.94;67.21;99328.27;103045;1299;108085;-76
2022/10/14 02:15:56;;;;;;;40.10;21.90;;;;;;;5.91;67.26;99319.27;103067;1297;96410;-78
2022/10/14 02:18:37;;;;;;;36.80;22.50;;;;;;;5.86;67.42;99322.35;103135;1304;98053;-76
2022/10/14 02:21:30;;;;;;;39.80;21.20;;;;;;;5.77;67.47;99316.05;103108;1298;110161;-76
2022/10/14 02:24:20;;;;;;;37.10;21.10;;;;;;;5.70;67.42;99321.36;103048;1297;97664;-75
2022/10/14 02:26:54;;;;;;;38.30;23.00;;;;;;;5.68;67.53;99320.59;102945;1306;107498;-75
2022/10/14 02:29:26;;;;;;;36.10;21.40;;;;;;;5.69;67.65;99319.13;103073;1304;97900;-76
2022/10/14 02:32:00;;;;;;;41.60;22.60;;;;;;;5.71;67.79;99318.31;103039;1298;97961;-75
2022/10/14 02:34:28;;;;;;;39.30;22.00;;;;;;;5.72;67.69;99314.60;103061;1298;111329;-75
2022/10/14 02:37:01;;;;;;;38.30;22.40;;;;;;;5.72;67.63;99312.84;103137;1296;95214;-76
2022/10/14 02:39:35;;;;;;;41.60;22.80;;;;;;;5.73;67.89;99312.76;103047;1304;107522;-77
2022/10/14 02:42:08;;;;;;;40.00;23.40;;;;;;;5.74;67.86;99309.02;103101;1299;97872;-75
2022/10/14 02:44:36;;;;;;;38.80;24.10;;;;;;;5.75;67.83;99309.34;103162;1307;97868;-77
2022/10/14 02:47:07;;;;;;;39.80;23.10;;;;;;;5.76;67.89;99315.25;103178;1304;110257;-76
2022/10/14 02:49:34;;;;;;;39.90;25.50;;;;;;;5.76;67.89;99315.05;103198;1304;97904;-77
2022/10/14 02:52:02;;;;;;;43.00;24.70;;;;;;;5.76;67.87;99315.81;103129;1290;107214;-77
2022/10/14 02:54:30;;;;;;;36.20;22.80;;;;;;;5.74;67.93;99313.77;103185;1288;95551;-77
2022/10/14 02:56:57;;;;;;;39.00;23.50;;;;;;;5.74;67.91;99313.59;103142;1304;97934;-77
2022/10/14 02:59:29;;;;;;;41.80;24.40;;;;;;;5.74;67.92;99315.21;103019;1299;111104;-76
2022/10/14 03:01:57;;;;;;;39.90;26.00;;;;;;;5.72;67.73;99311.26;103033;1298;97909;-76
2022/10/14 03:04:25;;;;;;;41.90;24.20;;;;;;;5.69;67.85;99311.59;103046;1297;107423;-77
2022/10/14 03:06:53;;;;;;;46.70;25.40;;;;;;;5.62;67.84;99307.51;103057;1298;97863;-77
2022/10/14 03:09:24;;;;;;;43.20;24.90;;;;;;;5.56;67.84;99311.82;103071;1293;97989;-77
2022/10/14 03:11:52;;;;;;;38.30;23.80;;;;;;;5.53;67.94;99310.92;103085;1300;111114;-76
2022/10/14 03:14:20;;;;;;;41.90;23.40;;;;;;;5.50;68.01;99311.39;103092;1299;97862;-78
2022/10/14 03:16:47;;;;;;;42.10;25.30;;;;;;;5.47;68.51;99308.90;103066;1299;107565;-77
2022/10/14 03:19:18;;;;;;;40.90;25.90;;;;;;;5.43;68.31;99306.84;103127;1298;97989;-77
2022/10/14 03:21:51;;;;;;;41.30;25.30;;;;;;;5.39;68.30;99309.79;103054;1305;98027;-77
2022/10/14 03:24:20;;;;;;;42.10;25.90;;;;;;;5.37;68.32;99314.98;103056;1296;111127;-75
2022/10/14 03:26:53;;;;;;;44.00;27.10;;;;;;;5.35;67.94;99316.30;103139;1305;97887;-76
2022/10/14 03:29:21;;;;;;;42.50;25.40;;;;;;;5.29;68.03;99315.91;103147;1297;107469;-75
2022/10/14 03:31:48;;;;;;;43.00;26.40;;;;;;;5.19;68.62;99317.77;103092;1294;97915;-75
2022/10/14 03:34:16;;;;;;;40.90;25.60;;;;;;;5.13;69.11;99317.19;103086;1296;95102;-76
2022/10/14 03:36:44;;;;;;;41.30;24.50;;;;;;;5.09;69.08;99313.16;103137;1297;110829;-76
2022/10/14 03:39:12;;;;;;;40.20;24.30;;;;;;;5.05;68.72;99313.16;103157;1304;95186;-74
2022/10/14 03:41:39;;;;;;;37.70;22.70;;;;;;;5.02;68.65;99314.34;103070;1296;107462;-75
2022/10/14 03:44:07;;;;;;;36.50;22.30;;;;;;;5.03;68.82;99316.77;103040;1290;97978;-75
2022/10/14 03:46:35;;;;;;;36.50;22.60;;;;;;;5.06;68.84;99319.80;103080;1296;97890;-76
2022/10/14 03:49:05;;;;;;;38.40;23.00;;;;;;;5.09;69.13;99312.98;103115;1296;111899;-76
2022/10/14 03:51:33;;;;;;;40.40;22.80;;;;;;;5.15;68.65;99308.48;103122;1301;95307;-79
2022/10/14 03:54:02;;;;;;;39.00;22.00;;;;;;;5.21;68.83;99302.01;103133;1298;107460;-78
2022/10/14 03:56:32;;;;;;;42.00;22.80;;;;;;;5.26;69.33;99294.27;103162;1296;97910;-77
2022/10/14 03:59:06;;;;;;;37.80;19.80;;;;;;;5.31;69.22;99292.60;103195;1297;97932;-76
2022/10/14 04:01:33;;;;;;;37.80;20.90;;;;;;;5.35;69.31;99292.05;103188;1303;111189;-76
2022/10/14 04:04:01;;;;;;;33.00;19.30;;;;;;;5.40;69.18;99294.48;103056;1304;95821;-80
2022/10/14 04:06:30;;;;;;;34.20;20.50;;;;;;;5.43;69.17;99294.53;103029;1288;107375;-76
2022/10/14 04:09:01;;;;;;;34.60;18.80;;;;;;;5.46;69.13;99295.25;103033;1299;98538;-74
2022/10/14 04:11:28;;;;;;;33.00;19.40;;;;;;;5.49;69.30;99291.75;102946;1304;98027;-74
2022/10/14 04:14:00;;;;;;;36.30;20.50;;;;;;;5.53;69.25;99290.69;103116;1297;111252;-76
2022/10/14 04:16:28;;;;;;;36.60;21.80;;;;;;;5.55;69.24;99289.53;103151;1296;98504;-75
2022/10/14 04:18:57;;;;;;;32.90;18.60;;;;;;;5.56;69.19;99285.61;103131;1291;107460;-75
2022/10/14 04:21:26;;;;;;;37.80;21.90;;;;;;;5.57;69.23;99283.45;103006;1296;95319;-77
2022/10/14 04:23:58;;;;;;;35.70;21.00;;;;;;;5.58;69.29;99284.45;103105;1300;98029;-77
2022/10/14 04:26:26;;;;;;;42.10;25.90;;;;;;;5.58;69.23;99286.21;103005;1304;111180;-78
2022/10/14 04:28:53;;;;;;;45.00;27.80;;;;;;;5.57;69.26;99284.00;103073;1296;97897;-78
2022/10/14 04:31:21;;;;;;;47.40;27.00;;;;;;;5.55;69.20;99281.11;103077;1304;107673;-78
2022/10/14 04:33:49;;;;;;;45.40;26.70;;;;;;;5.51;69.13;99279.70;103107;1306;97961;-75
2022/10/14 04:36:21;;;;;;;45.30;27.40;;;;;;;5.48;69.15;99279.50;103060;1302;97920;-77
2022/10/14 04:38:49;;;;;;;54.00;34.70;;;;;;;5.45;69.17;99280.84;103110;1299;110792;-77
2022/10/14 04:41:16;;;;;;;65.00;42.00;;;;;;;5.42;68.99;99282.25;103139;1296;95698;-75
2022/10/14 04:43:47;;;;;;;68.30;43.10;;;;;;;5.33;68.93;99283.16;103028;1303;114494;-75
2022/10/14 04:46:15;;;;;;;67.20;44.50;;;;;;;5.20;68.82;99280.11;102925;1307;97983;-75
2022/10/14 04:48:43;;;;;;;53.70;33.10;;;;;;;5.12;69.02;99276.25;103103;1304;98207;-78
2022/10/14 04:51:10;;;;;;;52.80;32.20;;;;;;;5.07;69.09;99278.59;102979;1306;111144;-75
2022/10/14 04:53:39;;;;;;;63.30;37.70;;;;;;;5.04;69.16;99274.32;103110;1304;97895;-73
2022/10/14 04:56:10;;;;;;;77.60;48.80;;;;;;;5.00;69.10;99274.17;103097;1296;108619;-72
2022/10/14 04:58:38;;;;;;;81.10;50.80;;;;;;;4.93;69.02;99269.06;103106;1299;97824;-73
2022/10/14 05:01:05;;;;;;;75.50;49.30;;;;;;;4.86;69.08;99270.59;102990;1293;98693;-73
2022/10/14 05:03:33;;;;;;;78.50;48.30;;;;;;;4.79;68.95;99269.70;103015;1300;110167;-74
2022/10/14 05:06:01;;;;;;;80.60;52.10;;;;;;;4.74;69.07;99269.38;103047;1297;95912;-73
2022/10/14 05:08:29;;;;;;;82.60;52.90;;;;;;;4.70;69.01;99267.29;103039;1296;107477;-73
2022/10/14 05:10:56;;;;;;;77.40;51.30;;;;;;;4.67;68.98;99269.02;103058;1304;97783;-72
2022/10/14 05:13:24;;;;;;;81.20;51.70;;;;;;;4.62;68.91;99269.91;103046;1303;97916;-73
2022/10/14 05:15:52;;;;;;;88.80;54.80;;;;;;;4.53;68.93;99270.16;103049;1298;111017;-73
2022/10/14 05:18:20;;;;;;;93.00;59.50;;;;;;;4.43;68.86;99270.76;103119;1296;95199;-73
2022/10/14 05:20:48;;;;;;;87.70;56.40;;;;;;;4.34;68.98;99269.39;103099;1298;107500;-77
2022/10/14 05:23:15;;;;;;;91.70;57.90;;;;;;;4.29;69.03;99273.30;103164;1298;95229;-75
2022/10/14 05:25:43;;;;;;;93.10;59.80;;;;;;;4.26;69.09;99278.70;103214;1296;98477;-73
2022/10/14 05:28:11;;;;;;;92.00;60.50;;;;;;;4.24;69.13;99278.42;103126;1296;111182;-74
2022/10/14 05:30:38;;;;;;;88.70;58.30;;;;;;;4.24;69.10;99281.59;103107;1297;99007;-72
2022/10/14 05:33:06;;;;;;;88.60;58.40;;;;;;;4.22;69.19;99283.09;103029;1296;107108;-72
2022/10/14 05:35:35;;;;;;;87.30;56.70;;;;;;;4.21;69.13;99288.38;103006;1298;97896;-73
2022/10/14 05:38:22;;;;;;;84.20;55.60;;;;;;;4.20;69.36;99285.27;103033;1304;98010;-72
2022/10/14 05:40:59;;;;;;;85.80;57.10;;;;;;;4.19;69.19;99288.81;103085;1304;110746;-73
2022/10/14 05:43:27;;;;;;;88.70;54.80;;;;;;;4.19;69.41;99286.53;103131;1296;97920;-76
2022/10/14 05:46:02;;;;;;;69.10;44.60;;;;;;;4.21;69.28;99286.10;103128;1297;107121;-76
2022/10/14 05:48:33;;;;;;;66.50;44.70;;;;;;;4.23;69.40;99285.16;103140;1284;97909;-76
2022/10/14 05:51:02;;;;;;;75.10;49.40;;;;;;;4.28;69.48;99284.77;103113;1297;97918;-76
2022/10/14 05:53:31;;;;;;;80.10;48.90;;;;;;;4.29;69.43;99283.65;103107;1297;111258;-74
2022/10/14 05:56:06;;;;;;;84.00;54.40;;;;;;;4.29;69.45;99284.34;103050;1304;97882;-74
2022/10/14 05:58:40;;;;;;;84.60;54.30;;;;;;;4.29;69.28;99284.36;103024;1297;107805;-74
2022/10/14 06:01:11;;;;;;;88.00;55.10;;;;;;;4.31;69.54;99284.45;103042;1304;97898;-74
2022/10/14 06:03:39;;;;;;;81.80;52.50;;;;;;;4.35;69.53;99284.60;102943;1297;95420;-72
2022/10/14 06:06:14;;;;;;;83.70;52.40;;;;;;;4.39;69.65;99287.25;103118;1297;110714;-75
2022/10/14 06:08:45;;;;;;;84.10;54.10;;;;;;;4.44;69.68;99291.42;102942;1300;99021;-75
2022/10/14 06:11:13;;;;;;;77.00;49.30;;;;;;;4.48;69.71;99288.11;102962;1300;108245;-74
2022/10/14 06:13:41;;;;;;;77.00;49.30;;;;;;;4.53;69.83;99291.77;103156;1297;97912;-75
2022/10/14 06:16:12;;;;;;;76.80;49.70;;;;;;;4.58;69.82;99288.89;103131;1297;97916;-79
2022/10/14 06:18:40;;;;;;;76.20;49.60;;;;;;;4.64;69.87;99288.27;103093;1294;111135;-75
2022/10/14 06:21:11;;;;;;;74.10;48.30;;;;;;;4.71;69.98;99288.64;103028;1298;98389;-75
2022/10/14 06:23:40;;;;;;;80.70;51.30;;;;;;;4.77;69.96;99288.20;103124;1297;107546;-76
2022/10/14 06:26:09;;;;;;;76.10;49.00;;;;;;;4.84;69.96;99289.68;103022;1299;97993;-75
2022/10/14 06:28:40;;;;;;;74.40;49.10;;;;;;;4.91;69.95;99287.43;103118;1304;97030;-76
2022/10/14 06:31:08;;;;;;;81.60;50.50;;;;;;;4.97;70.09;99294.89;102960;1299;111555;-76
2022/10/14 06:33:39;;;;;;;76.70;51.10;;;;;;;5.03;70.04;99293.89;103069;1304;97697;-76
2022/10/14 06:36:11;;;;;;;78.50;50.10;;;;;;;5.10;70.09;99296.75;103051;1296;106516;-76
2022/10/14 06:38:39;;;;;;;76.70;48.20;;;;;;;5.16;70.16;99294.02;103100;1297;97976;-74
2022/10/14 06:41:07;;;;;;;79.20;48.30;;;;;;;5.23;70.20;99294.92;103026;1297;97969;-77
2022/10/14 06:43:35;;;;;;;74.40;47.30;;;;;;;5.29;70.14;99292.00;103058;1304;111069;-76
2022/10/14 06:46:06;;;;;;;71.70;46.80;;;;;;;5.35;70.11;99295.39;103039;1296;96222;-75
2022/10/14 06:48:34;;;;;;;66.80;44.10;;;;;;;5.42;70.23;99295.97;103064;1297;107209;-75
2022/10/14 06:51:02;;;;;;;76.10;42.40;;;;;;;5.48;70.31;99299.17;103109;1296;97904;-76
2022/10/14 06:53:33;;;;;;;61.40;40.70;;;;;;;5.56;70.23;99299.35;103052;1303;98371;-76
2022/10/14 06:56:10;;;;;;;60.90;40.60;;;;;;;5.63;70.34;99297.95;103089;1297;111169;-78
2022/10/14 06:58:38;;;;;;;69.20;42.60;;;;;;;5.69;70.32;99297.11;103175;1290;97932;-76
2022/10/14 07:01:09;;;;;;;66.70;43.40;;;;;;;5.76;70.37;99299.08;102948;1299;107482;-77
2022/10/14 07:03:38;;;;;;;65.30;42.00;;;;;;;5.84;70.48;99298.52;103151;1297;97971;-76
2022/10/14 07:06:09;;;;;;;68.90;42.90;;;;;;;5.91;70.73;99297.96;103090;1298;95269;-76
2022/10/14 07:08:36;;;;;;;63.80;42.20;;;;;;;6.00;70.57;99296.67;103101;1297;111151;-77
2022/10/14 07:11:04;;;;;;;67.10;41.60;;;;;;;6.09;70.62;99299.95;103083;1297;97948;-79
2022/10/14 07:13:33;;;;;;;62.00;38.20;;;;;;;6.17;70.67;99298.83;103136;1297;108175;-76
2022/10/14 07:16:02;;;;;;;56.40;38.00;;;;;;;6.27;70.47;99298.52;103111;1294;98558;-77
2022/10/14 07:18:34;;;;;;;55.10;34.90;;;;;;;6.35;70.60;99298.09;103161;1304;97894;-77
2022/10/14 07:21:06;;;;;;;57.60;38.10;;;;;;;6.44;70.62;99299.73;103053;1297;111072;-76
2022/10/14 07:23:33;;;;;;;53.10;34.60;;;;;;;6.53;70.65;99296.80;103068;1302;95129;-77
2022/10/14 07:26:01;;;;;;;57.50;35.90;;;;;;;6.62;70.81;99296.73;103028;1303;107119;-77
2022/10/14 07:28:29;;;;;;;46.50;31.30;;;;;;;6.72;70.72;99295.14;103092;1297;98410;-78
2022/10/14 07:31:06;;;;;;;54.60;33.20;;;;;;;6.80;70.93;99291.55;103150;1300;98096;-79
2022/10/14 07:33:38;;;;;;;52.30;33.00;;;;;;;6.92;70.82;99292.15;103102;1290;111086;-78
2022/10/14 07:36:15;;;;;;;63.30;34.50;;;;;;;7.03;70.92;99288.89;103149;1305;97996;-77
2022/10/14 07:38:51;;;;;;;55.00;33.50;;;;;;;7.16;70.96;99292.05;103125;1304;107466;-78
2022/10/14 07:41:25;;;;;;;52.10;31.70;;;;;;;7.28;70.95;99292.12;103032;1300;97915;-78
2022/10/14 07:44:01;;;;;;;50.00;32.40;;;;;;;7.41;70.84;99292.46;103124;1303;97912;-79
2022/10/14 07:46:31;;;;;;;54.10;34.50;;;;;;;7.53;70.91;99293.56;103196;1300;111086;-80
2022/10/14 07:49:08;;;;;;;49.70;33.10;;;;;;;7.63;70.83;99295.30;103126;1298;97920;-78
2022/10/14 07:51:40;;;;;;;51.00;31.90;;;;;;;7.73;70.87;99292.96;103126;1299;107530;-79
2022/10/14 07:54:16;;;;;;;51.10;31.70;;;;;;;7.83;70.98;99294.69;103102;1305;97879;-79
2022/10/14 07:56:48;;;;;;;52.10;31.70;;;;;;;7.95;71.09;99291.35;103167;1303;97989;-79
2022/10/14 07:59:20;;;;;;;49.90;31.60;;;;;;;8.06;71.02;99290.90;103142;1305;110931;-79
2022/10/14 08:01:53;;;;;;;44.70;30.20;;;;;;;8.18;71.17;99290.01;103188;1304;97720;-79
2022/10/14 08:04:24;;;;;;;49.20;30.80;;;;;;;8.33;70.98;99287.73;103153;1303;107268;-79
2022/10/14 08:06:52;;;;;;;48.10;32.90;;;;;;;8.48;71.15;99286.13;103182;1304;97787;-79
2022/10/14 08:09:20;;;;;;;46.00;31.30;;;;;;;8.62;71.02;99282.11;103156;1297;95213;-80
2022/10/14 08:11:48;;;;;;;50.60;32.60;;;;;;;8.75;70.96;99285.21;103161;1298;110788;-81
2022/10/14 08:14:16;;;;;;;46.20;30.00;;;;;;;8.86;71.11;99286.52;103188;1304;98011;-80
2022/10/14 08:16:43;;;;;;;45.50;30.30;;;;;;;8.98;71.09;99287.86;103169;1304;106126;-81
2022/10/14 08:19:15;;;;;;;42.50;26.60;;;;;;;9.10;71.05;99287.11;103177;1297;97927;-81
2022/10/14 08:21:43;;;;;;;43.10;30.10;;;;;;;9.22;71.04;99280.18;103035;1300;95647;-81
2022/10/14 08:24:14;;;;;;;42.30;28.70;;;;;;;9.33;71.06;99281.23;103108;1304;111281;-81
2022/10/14 08:26:54;;;;;;;44.40;29.10;;;;;;;9.46;71.06;99279.20;103115;1302;97915;-80
2022/10/14 08:29:25;;;;;;;42.80;28.20;;;;;;;9.62;71.05;99274.08;103127;1297;107333;-79
2022/10/14 08:31:54;;;;;;;43.20;26.30;;;;;;;9.87;71.11;99270.53;103126;1304;97972;-80
2022/10/14 08:34:25;;;;;;;39.70;25.90;;;;;;;10.18;71.02;99271.83;103176;1304;97962;-78
2022/10/14 08:36:56;;;;;;;42.20;24.00;;;;;;;10.50;70.96;99270.05;103049;1303;111202;-79
2022/10/14 08:39:24;;;;;;;40.20;23.80;;;;;;;10.84;70.94;99268.93;103099;1305;97840;-80
2022/10/14 08:42:18;;;;;;;39.40;24.40;;;;;;;11.20;71.07;99262.44;102949;1307;107491;-83
2022/10/14 08:45:00;;;;;;;35.70;22.60;;;;;;;11.63;70.86;99267.50;103130;1306;97962;-83
2022/10/14 08:47:38;;;;;;;33.40;22.30;;;;;;;12.01;70.84;99263.83;103175;1296;97986;-81
2022/10/14 08:50:24;;;;;;;38.60;22.50;;;;;;;12.42;70.91;99264.83;103129;1302;110840;-80
2022/10/14 08:53:21;;;;;;;32.40;21.10;;;;;;;12.87;70.77;99261.59;103132;1304;95324;-78
2022/10/14 08:55:59;;;;;;;32.40;19.90;;;;;;;13.32;70.73;99257.27;103081;1298;107460;-81
2022/10/14 08:58:40;;;;;;;43.40;20.30;;;;;;;13.70;70.63;99251.86;103097;1299;97982;-80
2022/10/14 09:01:22;;;;;;;32.70;19.50;;;;;;;14.06;70.55;99254.26;103180;1296;97912;-81
2022/10/14 09:03:58;;;;;;;35.20;20.20;;;;;;;14.41;70.47;99252.55;103125;1303;110249;-81
2022/10/14 09:06:35;;;;;;;31.70;20.20;;;;;;;14.79;70.43;99253.61;102921;1299;97834;-81
2022/10/14 09:09:24;;;;;;;34.80;18.20;;;;;;;15.23;70.65;99250.52;102911;1301;107775;-81
2022/10/14 09:12:00;;;;;;;33.90;16.70;;;;;;;15.71;70.37;99250.62;102998;1305;97951;-82
2022/10/14 09:14:36;;;;;;;30.40;17.10;;;;;;;16.13;70.02;99250.23;102953;1294;95326;-83
2022/10/14 09:17:18;;;;;;;33.00;17.20;;;;;;;16.51;69.97;99249.94;103070;1298;111188;-80
2022/10/14 09:20:04;;;;;;;33.40;17.50;;;;;;;16.92;69.74;99245.36;103113;1298;97951;-79
2022/10/14 09:22:33;;;;;;;30.50;16.60;;;;;;;17.32;69.60;99246.51;103124;1305;107439;-80
2022/10/14 09:25:01;;;;;;;28.40;17.20;;;;;;;17.73;69.14;99249.85;103136;1303;95725;-81
2022/10/14 09:27:30;;;;;;;29.50;16.70;;;;;;;18.05;69.00;99248.39;103130;1305;95169;-82
2022/10/14 09:30:09;;;;;;;32.10;16.80;;;;;;;18.20;68.93;99246.83;103098;1300;111180;-83
2022/10/14 09:32:47;;;;;;;31.60;18.40;;;;;;;18.33;68.68;99247.34;103098;1298;97822;-83
2022/10/14 09:35:40;;;;;;;32.30;16.80;;;;;;;18.31;67.85;99243.42;103122;1299;106129;-84
2022/10/14 09:38:12;;;;;;;30.80;18.70;;;;;;;18.16;68.19;99246.73;103087;1299;95146;-82
2022/10/14 09:40:48;;;;;;;30.20;17.40;;;;;;;18.00;68.12;99239.54;102974;1300;97991;-83
2022/10/14 09:43:20;;;;;;;28.50;16.80;;;;;;;17.97;68.41;99238.54;103060;1304;112753;-82
2022/10/14 09:46:09;;;;;;;32.30;17.30;;;;;;;18.05;68.58;99239.05;102992;1307;97879;-82
2022/10/14 09:48:49;;;;;;;27.10;16.00;;;;;;;18.14;68.18;99237.23;103176;1304;107153;-82
2022/10/14 09:51:25;;;;;;;28.60;16.40;;;;;;;18.15;68.08;99235.95;103081;1306;97994;-83
2022/10/14 09:54:03;;;;;;;26.60;15.70;;;;;;;18.22;68.09;99234.30;103141;1302;95272;-84
2022/10/14 09:56:40;;;;;;;24.80;15.10;;;;;;;18.32;68.24;99235.38;102986;1300;111198;-86
2022/10/14 09:59:23;;;;;;;28.40;15.50;;;;;;;18.44;68.01;99232.56;103072;1301;95209;-84
2022/10/14 10:02:04;;;;;;;29.00;14.40;;;;;;;18.55;67.95;99227.98;103013;1301;107247;-84
2022/10/14 10:04:46;;;;;;;27.20;14.50;;;;;;;18.69;67.80;99224.39;103110;1297;97897;-84
2022/10/14 10:07:33;;;;;;;28.10;15.70;;;;;;;18.83;67.72;99223.14;103122;1304;99541;-83
2022/10/14 10:10:19;;;;;;;27.70;15.20;;;;;;;18.95;67.51;99223.88;103083;1305;111003;-82
2022/10/14 10:12:47;;;;;;;28.70;15.70;;;;;;;19.09;67.34;99222.65;103088;1299;95570;-83
2022/10/14 10:15:22;;;;;;;27.40;15.60;;;;;;;19.19;67.40;99218.09;103132;1304;107674;-83
2022/10/14 10:17:54;;;;;;;27.50;14.20;;;;;;;19.32;67.09;99216.45;103061;1301;95236;-83
2022/10/14 10:20:33;;;;;;;26.50;14.60;;;;;;;19.40;66.94;99212.48;103169;1303;97843;-84
2022/10/14 10:23:30;;;;;;;23.90;12.20;;;;;;;19.38;66.55;99211.84;103044;1296;111132;-84
2022/10/14 10:26:20;;;;;;;22.50;11.70;;;;;;;19.27;66.15;99206.69;103034;1296;97889;-82
2022/10/14 10:28:56;;;;;;;27.40;12.40;;;;;;;19.25;66.34;99205.48;102985;1299;107396;-81
2022/10/14 10:32:05;;;;;;;26.90;13.40;;;;;;;19.34;66.29;99202.66;102946;1307;98000;-76
2022/10/14 10:35:13;;;;;;;25.70;12.80;;;;;;;19.48;66.04;99203.73;103118;1296;97896;-73
2022/10/14 10:37:59;;;;;;;24.40;13.30;;;;;;;19.61;65.91;99202.54;103032;1295;111366;-73
2022/10/14 10:40:48;;;;;;;24.70;13.30;;;;;;;19.73;65.75;99201.38;103070;1303;97914;-78
2022/10/14 10:43:30;;;;;;;25.00;12.70;;;;;;;19.81;65.68;99200.85;103026;1298;107514;-79
2022/10/14 10:46:14;;;;;;;24.40;11.60;;;;;;;19.85;65.18;99197.83;103096;1294;98450;-78
2022/10/14 10:49:00;;;;;;;22.30;11.70;;;;;;;19.83;65.16;99194.77;103083;1301;97964;-79
2022/10/14 10:51:46;;;;;;;25.70;11.50;;;;;;;19.77;64.69;99197.69;103069;1296;111772;-79
2022/10/14 10:54:48;;;;;;;22.40;10.80;;;;;;;19.77;64.77;99195.35;103108;1298;97877;-79
2022/10/14 10:57:44;;;;;;;21.70;10.70;;;;;;;19.75;64.62;99193.41;103115;1297;107348;-79
2022/10/14 11:00:19;;;;;;;;;;;;;;;19.79;64.29;99194.08;103165;1304;97899;-78
2022/10/14 11:03:23;;;;;;;22.30;11.00;;;;;;;19.72;64.14;99193.60;103070;1295;97875;-86
2022/10/14 11:06:03;;;;;;;22.60;11.20;;;;;;;19.60;64.20;99187.91;103123;1303;110807;-78
2022/10/14 11:12:12;;;;;;;26.10;11.70;;;;;;;19.29;63.63;99183.08;103093;1304;107458;-78
2022/10/14 11:15:07;;;;;;;;;;;;;;;19.23;63.54;99175.88;103122;1303;95146;-75
2022/10/14 11:17:42;;;;;;;24.70;11.20;;;;;;;19.19;63.50;99173.20;103110;1303;96957;-75
2022/10/14 11:20:26;;;;;;;22.40;10.60;;;;;;;19.20;63.56;99168.10;103087;1304;110779;-75
2022/10/14 11:23:03;;;;;;;22.90;11.40;;;;;;;19.24;63.41;99166.56;103105;1296;95303;-76
2022/10/14 11:26:04;;;;;;;21.10;11.10;;;;;;;19.29;62.87;99163.01;103089;1303;107471;-75
2022/10/14 11:28:37;;;;;;;21.00;10.80;;;;;;;19.34;63.03;99166.26;103107;1297;97908;-75
2022/10/14 11:31:45;;;;;;;20.50;11.00;;;;;;;19.37;63.12;99166.45;103147;1298;97927;-75
2022/10/14 11:34:55;;;;;;;24.90;11.20;;;;;;;19.37;61.48;99159.27;103106;1298;110931;-74
2022/10/14 11:37:43;;;;;;;20.50;10.40;;;;;;;19.29;62.33;99151.62;103097;1297;95834;-74
2022/10/14 11:40:40;;;;;;;22.10;10.90;;;;;;;19.31;62.30;99149.84;103107;1304;107370;-74
2022/10/14 11:43:17;;;;;;;19.60;9.90;;;;;;;19.41;62.32;99149.13;103037;1303;97862;-78
2022/10/14 11:45:53;;;;;;;20.70;10.60;;;;;;;19.54;62.50;99146.69;103171;1303;97967;-77
2022/10/14 11:48:33;;;;;;;20.60;10.70;;;;;;;19.64;62.14;99145.91;102997;1299;110828;-74
2022/10/14 11:51:24;;;;;;;22.00;10.80;;;;;;;19.71;61.81;99141.13;103168;1297;97980;-73